createdAt,value
2022-07-27T00:10:19.966Z,11.9
2022-07-27T00:24:46.362Z,11.6
2022-07-27T00:39:15.501Z,11.3
2022-07-27T00:53:41.296Z,11.4
2022-07-27T01:08:09.621Z,11.1
2022-07-27T01:22:37.322Z,11
2022-07-27T01:37:04.710Z,10.7
2022-07-27T01:51:32.029Z,10.4
2022-07-27T02:06:00.428Z,10.6
2022-07-27T02:20:28.122Z,10.9
2022-07-27T02:34:53.138Z,10.7
2022-07-27T02:49:21.516Z,10.8
2022-07-27T03:03:47.904Z,10.6
2022-07-27T03:18:16.796Z,10.7
2022-07-27T03:32:44.319Z,10.6
2022-07-27T03:47:12.515Z,10.7
2022-07-27T04:01:40.280Z,10.7
2022-07-27T04:16:07.283Z,10.7
2022-07-27T04:30:36.101Z,10.8
2022-07-27T04:45:04.329Z,10.9
2022-07-27T04:59:32.751Z,11
2022-07-27T05:14:01.000Z,11
2022-07-27T05:28:34.853Z,11.3
2022-07-27T05:43:12.502Z,11.2
2022-07-27T05:57:32.999Z,11.2
2022-07-27T06:12:01.350Z,10.4
2022-07-27T06:26:29.917Z,10.8
2022-07-27T06:40:58.746Z,10.8
2022-07-27T06:55:27.474Z,10.5
2022-07-27T07:09:56.145Z,10.3
2022-07-27T07:24:25.337Z,10
2022-07-27T07:39:02.727Z,10.5
2022-07-27T07:53:42.262Z,10.2
2022-07-27T08:07:58.254Z,9.5
2022-07-27T08:22:34.557Z,9.6
2022-07-27T08:37:16.211Z,9.3
2022-07-27T08:51:47.699Z,9.5
2022-07-27T09:06:08.891Z,9.1
2022-07-27T09:20:32.172Z,8.4
2022-07-27T09:34:58.019Z,8.4
2022-07-27T09:49:26.069Z,8.3
2022-07-27T10:03:57.181Z,9
2022-07-27T10:18:26.070Z,8.8
2022-07-27T10:32:52.214Z,7.7
2022-07-27T10:47:22.092Z,8.8
2022-07-27T11:01:52.831Z,7.6
2022-07-27T11:16:26.360Z,7.7
2022-07-27T11:30:48.068Z,7.7
2022-07-27T11:45:19.230Z,7.2
2022-07-27T11:59:43.112Z,8.1
2022-07-27T12:14:12.699Z,8.2
2022-07-27T12:28:41.970Z,9
2022-07-27T12:43:03.962Z,7.5
2022-07-27T12:57:57.631Z,8.2
2022-07-27T13:12:12.852Z,8.4
2022-07-27T13:26:37.702Z,7.8
2022-07-27T13:41:01.592Z,7.3
2022-07-27T13:55:34.570Z,7.1
2022-07-27T14:10:03.213Z,7.5
2022-07-27T14:24:30.341Z,8.1
2022-07-27T14:38:55.792Z,8.1
2022-07-27T14:53:22.406Z,7.7
2022-07-27T15:07:49.435Z,8
2022-07-27T15:22:16.875Z,7.5
2022-07-27T15:36:52.611Z,7.7
2022-07-27T15:51:14.570Z,7.6
2022-07-27T16:05:46.995Z,7.7
2022-07-27T16:20:16.720Z,7.5
2022-07-27T16:34:41.248Z,7.7
2022-07-27T16:49:10.046Z,7.4
2022-07-27T17:03:37.550Z,7.9
2022-07-27T17:18:02.344Z,7.6
2022-07-27T17:32:30.509Z,7.7
2022-07-27T17:47:01.690Z,7.5
2022-07-27T18:01:49.137Z,7.8
2022-07-27T18:16:04.202Z,8.4
2022-07-27T18:30:30.270Z,8
2022-07-27T18:44:56.778Z,8.7
2022-07-27T18:59:22.864Z,8.7
2022-07-27T19:13:49.388Z,8.2
2022-07-27T19:28:16.329Z,8.7
2022-07-27T19:42:43.490Z,8.3
2022-07-27T19:57:10.234Z,8
2022-07-27T20:11:37.588Z,8
2022-07-27T20:26:04.626Z,8.6
2022-07-27T20:40:32.195Z,8.4
2022-07-27T20:54:59.873Z,8.5
2022-07-27T21:09:28.963Z,8.3
2022-07-27T21:23:56.313Z,8.9
2022-07-27T21:38:24.242Z,8.6
2022-07-27T21:52:51.235Z,8.6
2022-07-27T22:07:19.979Z,9
2022-07-27T22:21:45.343Z,9
2022-07-27T22:36:12.956Z,9
2022-07-27T22:50:40.152Z,9.1
2022-07-27T23:05:07.488Z,9.2
2022-07-27T23:19:34.561Z,9.3
2022-07-27T23:34:02.154Z,9.4
2022-07-27T23:48:30.194Z,9.5
